New River MCAS, H, Mccutcheon Fld, Airport Jacksonville US
ICAO: KNCA
IATA: NCA
Category: Medium
Scheduled Services: No

Elevation: 26 ft
TransAlt. 18000 ft.

Airport Communications:
CHERRY POINT APP/DEP:119.35
ARRIVAL:124.85
ATIS:28.832
CLNC DEL:23.902
GND:121.8
OPS:23.64
PMSV METRO:24.477
TWR:120

KNCA Zoom In..

Runways:

(A) RW 01 length 4790 ft width 150 ft
ILS 111.10 / hdg 8

(B) RW 05 length 5114 ft width 150 ft
---- / hdg 53

(C) RW 19 length 4790 ft width 150 ft
---- / hdg 188

(D) RW 23 length 5114 ft width 150 ft
---- / hdg 233

Location; KNCA
Day. 19 / Time. 20.56 Zulu
* Altimeter: 29.79
* Temperature: 28° c. 82.4°f.
* Wind from: 290° Speed 18 kn with Gusts up to 24 kn.
Dewpoint: 11° c.
Visibility: 10 Statute Miles.
Clouds: Broken 9500 ft.

KNCA 192056Z AUTO 29018G24KT 10SM BKN095 28/11 A2979 RMK AO2 PK WND 29031/2004 SLP090 T02830106 53010


Wind From 290°
Speed 18 kn.

  YouTube Music Video
 
jpsmedia.com for Web Design  worldairports.se 2018   terms of use